sensor_id;sensor_type;location;lat;lon;timestamp;temperature;humidity
4530;DHT22;2277;51.626;7.516;2023-04-25T00:01:59;8.90;99.90
4530;DHT22;2277;51.626;7.516;2023-04-25T00:04:25;8.90;99.90
4530;DHT22;2277;51.626;7.516;2023-04-25T00:06:53;8.90;99.90
4530;DHT22;2277;51.626;7.516;2023-04-25T00:09:27;8.90;99.90
4530;DHT22;2277;51.626;7.516;2023-04-25T00:11:53;8.90;99.90
4530;DHT22;2277;51.626;7.516;2023-04-25T00:14:18;8.90;99.90
4530;DHT22;2277;51.626;7.516;2023-04-25T00:16:44;8.80;99.90
4530;DHT22;2277;51.626;7.516;2023-04-25T00:19:10;8.80;99.90
4530;DHT22;2277;51.626;7.516;2023-04-25T00:21:36;8.80;99.90
4530;DHT22;2277;51.626;7.516;2023-04-25T00:24:06;8.70;99.90
4530;DHT22;2277;51.626;7.516;2023-04-25T00:26:33;8.70;99.90
4530;DHT22;2277;51.626;7.516;2023-04-25T00:28:58;8.70;99.90
4530;DHT22;2277;51.626;7.516;2023-04-25T00:31:24;8.80;99.90
4530;DHT22;2277;51.626;7.516;2023-04-25T00:33:49;8.90;99.90
4530;DHT22;2277;51.626;7.516;2023-04-25T00:36:15;8.80;99.90
4530;DHT22;2277;51.626;7.516;2023-04-25T00:38:42;8.80;99.90
4530;DHT22;2277;51.626;7.516;2023-04-25T00:41:08;8.80;99.90
4530;DHT22;2277;51.626;7.516;2023-04-25T00:43:33;8.70;99.90
4530;DHT22;2277;51.626;7.516;2023-04-25T00:46:01;8.70;99.90
4530;DHT22;2277;51.626;7.516;2023-04-25T00:48:28;8.70;99.90
4530;DHT22;2277;51.626;7.516;2023-04-25T00:50:55;8.80;99.90
4530;DHT22;2277;51.626;7.516;2023-04-25T00:53:22;8.80;99.90
4530;DHT22;2277;51.626;7.516;2023-04-25T00:55:48;8.90;99.90
4530;DHT22;2277;51.626;7.516;2023-04-25T00:58:16;9.00;99.90
4530;DHT22;2277;51.626;7.516;2023-04-25T01:00:43;8.90;99.90
4530;DHT22;2277;51.626;7.516;2023-04-25T01:03:09;9.00;99.90
4530;DHT22;2277;51.626;7.516;2023-04-25T01:05:35;9.00;99.90
4530;DHT22;2277;51.626;7.516;2023-04-25T01:08:01;9.10;99.90
4530;DHT22;2277;51.626;7.516;2023-04-25T01:10:27;9.10;99.90
4530;DHT22;2277;51.626;7.516;2023-04-25T01:12:52;9.10;99.90
4530;DHT22;2277;51.626;7.516;2023-04-25T01:15:18;9.10;99.90
4530;DHT22;2277;51.626;7.516;2023-04-25T01:17:44;9.10;99.90
4530;DHT22;2277;51.626;7.516;2023-04-25T01:20:11;9.10;99.90
4530;DHT22;2277;51.626;7.516;2023-04-25T01:22:37;9.10;99.90
4530;DHT22;2277;51.626;7.516;2023-04-25T01:25:03;9.20;99.90
4530;DHT22;2277;51.626;7.516;2023-04-25T01:27:29;9.20;99.90
4530;DHT22;2277;51.626;7.516;2023-04-25T01:29:56;9.20;99.90
4530;DHT22;2277;51.626;7.516;2023-04-25T01:32:23;9.20;99.90
4530;DHT22;2277;51.626;7.516;2023-04-25T01:34:49;9.10;99.90
4530;DHT22;2277;51.626;7.516;2023-04-25T01:37:16;9.10;99.90
4530;DHT22;2277;51.626;7.516;2023-04-25T01:39:41;9.10;99.90
4530;DHT22;2277;51.626;7.516;2023-04-25T01:42:07;9.20;99.90
4530;DHT22;2277;51.626;7.516;2023-04-25T01:44:33;9.20;99.90
4530;DHT22;2277;51.626;7.516;2023-04-25T01:46:59;9.10;99.90
4530;DHT22;2277;51.626;7.516;2023-04-25T01:49:25;9.20;99.90
4530;DHT22;2277;51.626;7.516;2023-04-25T01:51:50;9.20;99.90
4530;DHT22;2277;51.626;7.516;2023-04-25T01:54:17;9.20;99.90
4530;DHT22;2277;51.626;7.516;2023-04-25T01:56:43;9.20;99.90
4530;DHT22;2277;51.626;7.516;2023-04-25T01:59:09;9.30;99.90
4530;DHT22;2277;51.626;7.516;2023-04-25T02:01:35;9.20;99.90
4530;DHT22;2277;51.626;7.516;2023-04-25T02:04:00;9.20;99.90
4530;DHT22;2277;51.626;7.516;2023-04-25T02:06:26;9.20;99.90
4530;DHT22;2277;51.626;7.516;2023-04-25T02:08:51;9.20;99.90
4530;DHT22;2277;51.626;7.516;2023-04-25T02:11:18;9.30;99.90
4530;DHT22;2277;51.626;7.516;2023-04-25T02:13:44;9.40;99.90
4530;DHT22;2277;51.626;7.516;2023-04-25T02:16:10;9.30;99.90
4530;DHT22;2277;51.626;7.516;2023-04-25T02:18:35;9.40;99.90
4530;DHT22;2277;51.626;7.516;2023-04-25T02:21:02;9.40;99.90
4530;DHT22;2277;51.626;7.516;2023-04-25T02:23:28;9.40;99.90
4530;DHT22;2277;51.626;7.516;2023-04-25T02:25:54;9.40;99.90
4530;DHT22;2277;51.626;7.516;2023-04-25T02:28:21;9.40;99.90
4530;DHT22;2277;51.626;7.516;2023-04-25T02:30:46;9.30;99.90
4530;DHT22;2277;51.626;7.516;2023-04-25T02:33:12;9.40;99.90
4530;DHT22;2277;51.626;7.516;2023-04-25T02:35:38;9.40;99.90
4530;DHT22;2277;51.626;7.516;2023-04-25T02:38:03;9.40;99.90
4530;DHT22;2277;51.626;7.516;2023-04-25T02:40:30;9.40;99.90
4530;DHT22;2277;51.626;7.516;2023-04-25T02:42:55;9.40;99.90
4530;DHT22;2277;51.626;7.516;2023-04-25T02:45:21;9.40;99.90
4530;DHT22;2277;51.626;7.516;2023-04-25T02:47:47;9.40;99.90
4530;DHT22;2277;51.626;7.516;2023-04-25T02:50:12;9.40;99.90
4530;DHT22;2277;51.626;7.516;2023-04-25T02:52:38;9.40;99.90
4530;DHT22;2277;51.626;7.516;2023-04-25T02:55:03;9.40;99.90
4530;DHT22;2277;51.626;7.516;2023-04-25T02:57:29;9.40;99.90
4530;DHT22;2277;51.626;7.516;2023-04-25T02:59:55;9.40;99.90
4530;DHT22;2277;51.626;7.516;2023-04-25T03:02:20;9.40;99.90
4530;DHT22;2277;51.626;7.516;2023-04-25T03:04:46;9.40;99.90
4530;DHT22;2277;51.626;7.516;2023-04-25T03:07:12;9.40;99.90
4530;DHT22;2277;51.626;7.516;2023-04-25T03:09:37;9.50;99.90
4530;DHT22;2277;51.626;7.516;2023-04-25T03:12:03;9.40;99.90
4530;DHT22;2277;51.626;7.516;2023-04-25T03:14:29;9.50;99.90
4530;DHT22;2277;51.626;7.516;2023-04-25T03:16:55;9.50;99.90
4530;DHT22;2277;51.626;7.516;2023-04-25T03:19:20;9.50;99.90
4530;DHT22;2277;51.626;7.516;2023-04-25T03:21:46;9.50;99.90
4530;DHT22;2277;51.626;7.516;2023-04-25T03:24:12;9.50;99.90
4530;DHT22;2277;51.626;7.516;2023-04-25T03:26:37;9.50;99.90
4530;DHT22;2277;51.626;7.516;2023-04-25T03:29:03;9.50;99.90
4530;DHT22;2277;51.626;7.516;2023-04-25T03:31:29;9.40;99.90
4530;DHT22;2277;51.626;7.516;2023-04-25T03:33:54;9.50;99.90
4530;DHT22;2277;51.626;7.516;2023-04-25T03:36:20;9.40;99.90
4530;DHT22;2277;51.626;7.516;2023-04-25T03:38:45;9.40;99.90
4530;DHT22;2277;51.626;7.516;2023-04-25T03:41:11;9.40;99.90
4530;DHT22;2277;51.626;7.516;2023-04-25T03:43:37;9.40;99.90
4530;DHT22;2277;51.626;7.516;2023-04-25T03:46:02;9.40;99.90
4530;DHT22;2277;51.626;7.516;2023-04-25T03:48:28;9.40;99.90
4530;DHT22;2277;51.626;7.516;2023-04-25T03:50:54;9.40;99.90
4530;DHT22;2277;51.626;7.516;2023-04-25T03:53:20;9.40;99.90
4530;DHT22;2277;51.626;7.516;2023-04-25T03:55:46;9.40;99.90
4530;DHT22;2277;51.626;7.516;2023-04-25T03:58:11;9.40;99.90
4530;DHT22;2277;51.626;7.516;2023-04-25T04:00:37;9.40;99.90
4530;DHT22;2277;51.626;7.516;2023-04-25T04:03:02;9.40;99.90
4530;DHT22;2277;51.626;7.516;2023-04-25T04:05:28;9.40;99.90
4530;DHT22;2277;51.626;7.516;2023-04-25T04:07:54;9.40;99.90
4530;DHT22;2277;51.626;7.516;2023-04-25T04:10:21;9.30;99.90
4530;DHT22;2277;51.626;7.516;2023-04-25T04:12:47;9.40;99.90
4530;DHT22;2277;51.626;7.516;2023-04-25T04:15:13;9.40;99.90
4530;DHT22;2277;51.626;7.516;2023-04-25T04:17:39;9.40;99.90
4530;DHT22;2277;51.626;7.516;2023-04-25T04:20:05;9.40;99.90
4530;DHT22;2277;51.626;7.516;2023-04-25T04:22:31;9.40;99.90
4530;DHT22;2277;51.626;7.516;2023-04-25T04:24:57;9.30;99.90
4530;DHT22;2277;51.626;7.516;2023-04-25T04:27:23;9.30;99.90
4530;DHT22;2277;51.626;7.516;2023-04-25T04:29:49;9.30;99.90
4530;DHT22;2277;51.626;7.516;2023-04-25T04:32:16;9.30;99.90
4530;DHT22;2277;51.626;7.516;2023-04-25T04:34:42;9.30;99.90
4530;DHT22;2277;51.626;7.516;2023-04-25T04:37:08;9.30;99.90
4530;DHT22;2277;51.626;7.516;2023-04-25T04:39:35;9.20;99.90
4530;DHT22;2277;51.626;7.516;2023-04-25T04:42:00;9.30;99.90
4530;DHT22;2277;51.626;7.516;2023-04-25T04:44:30;9.20;99.90
4530;DHT22;2277;51.626;7.516;2023-04-25T04:46:58;9.20;99.90
4530;DHT22;2277;51.626;7.516;2023-04-25T04:49:24;9.20;99.90
4530;DHT22;2277;51.626;7.516;2023-04-25T04:51:49;9.20;99.90
4530;DHT22;2277;51.626;7.516;2023-04-25T04:54:15;9.20;99.90
4530;DHT22;2277;51.626;7.516;2023-04-25T04:56:40;9.20;99.90
4530;DHT22;2277;51.626;7.516;2023-04-25T04:59:07;9.20;99.90
4530;DHT22;2277;51.626;7.516;2023-04-25T05:01:33;9.20;99.90
4530;DHT22;2277;51.626;7.516;2023-04-25T05:04:01;9.20;99.90
4530;DHT22;2277;51.626;7.516;2023-04-25T05:06:28;9.20;99.90
4530;DHT22;2277;51.626;7.516;2023-04-25T05:08:57;9.20;99.90
4530;DHT22;2277;51.626;7.516;2023-04-25T05:11:23;9.20;99.90
4530;DHT22;2277;51.626;7.516;2023-04-25T05:13:51;9.20;99.90
4530;DHT22;2277;51.626;7.516;2023-04-25T05:16:16;9.20;99.90
4530;DHT22;2277;51.626;7.516;2023-04-25T05:18:42;9.10;99.90
4530;DHT22;2277;51.626;7.516;2023-04-25T05:21:08;9.10;99.90
4530;DHT22;2277;51.626;7.516;2023-04-25T05:23:33;9.10;99.90
4530;DHT22;2277;51.626;7.516;2023-04-25T05:25:59;9.10;99.90
4530;DHT22;2277;51.626;7.516;2023-04-25T05:28:25;9.00;99.90
4530;DHT22;2277;51.626;7.516;2023-04-25T05:30:50;9.10;99.90
4530;DHT22;2277;51.626;7.516;2023-04-25T05:33:16;9.00;99.90
4530;DHT22;2277;51.626;7.516;2023-04-25T05:35:42;9.00;99.90
4530;DHT22;2277;51.626;7.516;2023-04-25T05:38:07;9.00;99.90
4530;DHT22;2277;51.626;7.516;2023-04-25T05:40:33;9.00;99.90
4530;DHT22;2277;51.626;7.516;2023-04-25T05:42:59;9.00;99.90
4530;DHT22;2277;51.626;7.516;2023-04-25T05:45:24;9.00;99.90
4530;DHT22;2277;51.626;7.516;2023-04-25T05:47:50;9.00;99.90
4530;DHT22;2277;51.626;7.516;2023-04-25T05:50:17;9.10;99.90
4530;DHT22;2277;51.626;7.516;2023-04-25T05:52:43;9.10;99.90
4530;DHT22;2277;51.626;7.516;2023-04-25T05:55:08;9.10;99.90
4530;DHT22;2277;51.626;7.516;2023-04-25T05:57:34;9.20;99.90
4530;DHT22;2277;51.626;7.516;2023-04-25T06:00:00;9.10;99.90
4530;DHT22;2277;51.626;7.516;2023-04-25T06:02:26;9.10;99.90
4530;DHT22;2277;51.626;7.516;2023-04-25T06:04:52;9.10;99.90
4530;DHT22;2277;51.626;7.516;2023-04-25T06:07:18;9.10;99.90
4530;DHT22;2277;51.626;7.516;2023-04-25T06:09:45;9.10;99.90
4530;DHT22;2277;51.626;7.516;2023-04-25T06:12:11;9.20;99.90
4530;DHT22;2277;51.626;7.516;2023-04-25T06:14:36;9.20;99.90
4530;DHT22;2277;51.626;7.516;2023-04-25T06:17:03;9.20;99.90
4530;DHT22;2277;51.626;7.516;2023-04-25T06:19:35;9.20;99.90
4530;DHT22;2277;51.626;7.516;2023-04-25T06:22:01;9.30;99.90
4530;DHT22;2277;51.626;7.516;2023-04-25T06:24:27;9.30;99.90
4530;DHT22;2277;51.626;7.516;2023-04-25T06:26:53;9.30;99.90
4530;DHT22;2277;51.626;7.516;2023-04-25T06:29:19;9.30;99.90
4530;DHT22;2277;51.626;7.516;2023-04-25T06:31:44;9.40;99.90
4530;DHT22;2277;51.626;7.516;2023-04-25T06:34:10;9.40;99.90
4530;DHT22;2277;51.626;7.516;2023-04-25T06:36:36;9.40;99.90
4530;DHT22;2277;51.626;7.516;2023-04-25T06:39:01;9.60;99.90
4530;DHT22;2277;51.626;7.516;2023-04-25T06:41:27;9.60;99.90
4530;DHT22;2277;51.626;7.516;2023-04-25T06:43:53;9.60;99.90
4530;DHT22;2277;51.626;7.516;2023-04-25T06:46:18;9.70;99.90
4530;DHT22;2277;51.626;7.516;2023-04-25T06:48:44;9.70;99.90
4530;DHT22;2277;51.626;7.516;2023-04-25T06:51:09;9.70;99.90
4530;DHT22;2277;51.626;7.516;2023-04-25T06:53:35;9.80;99.90
4530;DHT22;2277;51.626;7.516;2023-04-25T06:56:01;9.80;99.90
4530;DHT22;2277;51.626;7.516;2023-04-25T06:58:27;9.90;99.90
4530;DHT22;2277;51.626;7.516;2023-04-25T07:00:53;9.90;99.90
4530;DHT22;2277;51.626;7.516;2023-04-25T07:03:18;9.90;99.90
4530;DHT22;2277;51.626;7.516;2023-04-25T07:05:46;10.10;99.90
4530;DHT22;2277;51.626;7.516;2023-04-25T07:08:11;10.00;99.90
4530;DHT22;2277;51.626;7.516;2023-04-25T07:10:37;10.10;99.90
4530;DHT22;2277;51.626;7.516;2023-04-25T07:13:03;10.10;99.90
4530;DHT22;2277;51.626;7.516;2023-04-25T07:15:29;10.20;99.90
4530;DHT22;2277;51.626;7.516;2023-04-25T07:17:54;10.30;99.90
4530;DHT22;2277;51.626;7.516;2023-04-25T07:20:20;10.40;99.90
4530;DHT22;2277;51.626;7.516;2023-04-25T07:22:46;10.50;99.90
4530;DHT22;2277;51.626;7.516;2023-04-25T07:25:11;10.50;99.90
4530;DHT22;2277;51.626;7.516;2023-04-25T07:27:37;10.60;99.90
4530;DHT22;2277;51.626;7.516;2023-04-25T07:30:04;10.60;99.90
4530;DHT22;2277;51.626;7.516;2023-04-25T07:32:29;10.70;99.90
4530;DHT22;2277;51.626;7.516;2023-04-25T07:34:55;10.80;99.90
4530;DHT22;2277;51.626;7.516;2023-04-25T07:37:21;10.80;99.90
4530;DHT22;2277;51.626;7.516;2023-04-25T07:39:46;10.90;99.90
4530;DHT22;2277;51.626;7.516;2023-04-25T07:42:12;10.90;99.90
4530;DHT22;2277;51.626;7.516;2023-04-25T07:44:38;11.10;99.90
4530;DHT22;2277;51.626;7.516;2023-04-25T07:47:08;11.20;99.90
4530;DHT22;2277;51.626;7.516;2023-04-25T07:49:35;11.20;99.90
4530;DHT22;2277;51.626;7.516;2023-04-25T07:52:02;11.30;99.90
4530;DHT22;2277;51.626;7.516;2023-04-25T07:54:28;11.20;99.90
4530;DHT22;2277;51.626;7.516;2023-04-25T07:56:53;11.20;99.90
4530;DHT22;2277;51.626;7.516;2023-04-25T07:59:20;11.30;99.90
4530;DHT22;2277;51.626;7.516;2023-04-25T08:01:45;11.30;99.90
4530;DHT22;2277;51.626;7.516;2023-04-25T08:04:12;11.30;99.90
4530;DHT22;2277;51.626;7.516;2023-04-25T08:06:38;11.30;99.90
4530;DHT22;2277;51.626;7.516;2023-04-25T08:09:03;11.50;99.90
4530;DHT22;2277;51.626;7.516;2023-04-25T08:11:29;11.40;99.90
4530;DHT22;2277;51.626;7.516;2023-04-25T08:13:55;11.40;99.90
4530;DHT22;2277;51.626;7.516;2023-04-25T08:16:20;11.50;99.90
4530;DHT22;2277;51.626;7.516;2023-04-25T08:18:46;11.50;99.90
4530;DHT22;2277;51.626;7.516;2023-04-25T08:21:12;11.60;99.90
4530;DHT22;2277;51.626;7.516;2023-04-25T08:23:38;11.60;99.90
4530;DHT22;2277;51.626;7.516;2023-04-25T08:26:04;11.70;99.90
4530;DHT22;2277;51.626;7.516;2023-04-25T08:28:30;11.80;99.90
4530;DHT22;2277;51.626;7.516;2023-04-25T08:30:56;11.80;99.90
4530;DHT22;2277;51.626;7.516;2023-04-25T08:33:22;11.80;99.90
4530;DHT22;2277;51.626;7.516;2023-04-25T08:35:47;11.70;99.90
4530;DHT22;2277;51.626;7.516;2023-04-25T08:38:13;11.70;99.90
4530;DHT22;2277;51.626;7.516;2023-04-25T08:40:39;11.80;99.90
4530;DHT22;2277;51.626;7.516;2023-04-25T08:43:06;11.70;99.90
4530;DHT22;2277;51.626;7.516;2023-04-25T08:45:39;11.80;99.90
4530;DHT22;2277;51.626;7.516;2023-04-25T08:48:10;11.80;99.90
4530;DHT22;2277;51.626;7.516;2023-04-25T08:50:38;11.80;99.90
4530;DHT22;2277;51.626;7.516;2023-04-25T08:53:08;11.90;99.90
4530;DHT22;2277;51.626;7.516;2023-04-25T08:55:36;12.00;99.90
4530;DHT22;2277;51.626;7.516;2023-04-25T08:58:02;12.10;99.90
4530;DHT22;2277;51.626;7.516;2023-04-25T09:00:29;12.10;99.90
4530;DHT22;2277;51.626;7.516;2023-04-25T09:02:55;12.20;99.90
4530;DHT22;2277;51.626;7.516;2023-04-25T09:05:22;12.30;99.90
4530;DHT22;2277;51.626;7.516;2023-04-25T09:07:48;12.50;99.90
4530;DHT22;2277;51.626;7.516;2023-04-25T09:10:13;12.60;99.90
4530;DHT22;2277;51.626;7.516;2023-04-25T09:12:39;12.70;99.90
4530;DHT22;2277;51.626;7.516;2023-04-25T09:15:09;12.70;99.90
4530;DHT22;2277;51.626;7.516;2023-04-25T09:17:35;12.70;99.90
4530;DHT22;2277;51.626;7.516;2023-04-25T09:20:10;12.80;99.90
4530;DHT22;2277;51.626;7.516;2023-04-25T09:22:37;12.80;99.90
4530;DHT22;2277;51.626;7.516;2023-04-25T09:25:08;12.70;99.90
4530;DHT22;2277;51.626;7.516;2023-04-25T09:27:34;12.50;99.90
4530;DHT22;2277;51.626;7.516;2023-04-25T09:30:01;12.50;99.90
4530;DHT22;2277;51.626;7.516;2023-04-25T09:32:28;12.50;99.90
4530;DHT22;2277;51.626;7.516;2023-04-25T09:34:57;12.50;99.90
4530;DHT22;2277;51.626;7.516;2023-04-25T09:37:28;12.50;99.90
4530;DHT22;2277;51.626;7.516;2023-04-25T09:39:56;12.50;99.90
4530;DHT22;2277;51.626;7.516;2023-04-25T09:42:23;12.50;99.90
4530;DHT22;2277;51.626;7.516;2023-04-25T09:44:52;12.40;99.90
4530;DHT22;2277;51.626;7.516;2023-04-25T09:47:17;12.50;99.90
4530;DHT22;2277;51.626;7.516;2023-04-25T09:49:43;12.60;99.90
4530;DHT22;2277;51.626;7.516;2023-04-25T09:52:14;12.70;99.90
4530;DHT22;2277;51.626;7.516;2023-04-25T09:54:40;12.70;99.90
4530;DHT22;2277;51.626;7.516;2023-04-25T09:57:21;12.70;99.90
4530;DHT22;2277;51.626;7.516;2023-04-25T09:59:54;12.80;99.90
4530;DHT22;2277;51.626;7.516;2023-04-25T10:02:22;12.90;99.90
4530;DHT22;2277;51.626;7.516;2023-04-25T10:04:49;13.10;99.90
4530;DHT22;2277;51.626;7.516;2023-04-25T10:07:18;13.20;99.90
4530;DHT22;2277;51.626;7.516;2023-04-25T10:09:47;13.40;99.90
4530;DHT22;2277;51.626;7.516;2023-04-25T10:12:15;13.60;99.90
4530;DHT22;2277;51.626;7.516;2023-04-25T10:14:42;13.90;99.90
4530;DHT22;2277;51.626;7.516;2023-04-25T10:17:10;14.30;99.90
4530;DHT22;2277;51.626;7.516;2023-04-25T10:19:37;14.60;99.90
4530;DHT22;2277;51.626;7.516;2023-04-25T10:22:14;14.90;99.90
4530;DHT22;2277;51.626;7.516;2023-04-25T10:24:42;15.30;99.90
4530;DHT22;2277;51.626;7.516;2023-04-25T10:27:09;15.50;99.90
4530;DHT22;2277;51.626;7.516;2023-04-25T10:29:36;15.60;94.60
4530;DHT22;2277;51.626;7.516;2023-04-25T10:32:02;15.60;90.80
4530;DHT22;2277;51.626;7.516;2023-04-25T10:34:41;15.40;90.80
4530;DHT22;2277;51.626;7.516;2023-04-25T10:37:11;15.30;90.90
4530;DHT22;2277;51.626;7.516;2023-04-25T10:39:39;15.10;90.20
4530;DHT22;2277;51.626;7.516;2023-04-25T10:42:05;15.00;92.00
4530;DHT22;2277;51.626;7.516;2023-04-25T10:44:33;14.80;91.70
4530;DHT22;2277;51.626;7.516;2023-04-25T10:47:00;14.70;93.40
4530;DHT22;2277;51.626;7.516;2023-04-25T10:52:25;14.50;94.00
4530;DHT22;2277;51.626;7.516;2023-04-25T10:54:53;14.30;94.40
4530;DHT22;2277;51.626;7.516;2023-04-25T10:57:44;14.30;96.60
4530;DHT22;2277;51.626;7.516;2023-04-25T11:00:19;14.10;98.10
4530;DHT22;2277;51.626;7.516;2023-04-25T11:02:57;13.90;99.90
4530;DHT22;2277;51.626;7.516;2023-04-25T11:05:33;13.80;99.90
4530;DHT22;2277;51.626;7.516;2023-04-25T11:07:59;13.60;99.90
4530;DHT22;2277;51.626;7.516;2023-04-25T11:10:29;13.40;99.90
4530;DHT22;2277;51.626;7.516;2023-04-25T11:12:57;13.30;99.90
4530;DHT22;2277;51.626;7.516;2023-04-25T11:15:23;13.10;99.90
4530;DHT22;2277;51.626;7.516;2023-04-25T11:17:51;13.00;99.90
4530;DHT22;2277;51.626;7.516;2023-04-25T11:20:16;13.00;99.90
4530;DHT22;2277;51.626;7.516;2023-04-25T11:22:44;12.90;99.90
4530;DHT22;2277;51.626;7.516;2023-04-25T11:25:11;12.70;99.90
4530;DHT22;2277;51.626;7.516;2023-04-25T11:27:59;12.60;99.90
4530;DHT22;2277;51.626;7.516;2023-04-25T11:30:25;12.60;99.90
4530;DHT22;2277;51.626;7.516;2023-04-25T11:32:51;12.40;99.90
4530;DHT22;2277;51.626;7.516;2023-04-25T11:35:18;12.40;99.90
4530;DHT22;2277;51.626;7.516;2023-04-25T11:37:44;12.50;99.90
4530;DHT22;2277;51.626;7.516;2023-04-25T11:40:11;12.50;99.90
4530;DHT22;2277;51.626;7.516;2023-04-25T11:42:43;12.70;99.90
4530;DHT22;2277;51.626;7.516;2023-04-25T11:45:09;13.00;99.90
4530;DHT22;2277;51.626;7.516;2023-04-25T11:47:36;13.40;99.90
4530;DHT22;2277;51.626;7.516;2023-04-25T11:50:07;13.70;99.90
4530;DHT22;2277;51.626;7.516;2023-04-25T11:52:46;14.00;99.90
4530;DHT22;2277;51.626;7.516;2023-04-25T11:55:17;14.20;99.90
4530;DHT22;2277;51.626;7.516;2023-04-25T11:57:45;14.50;98.00
4530;DHT22;2277;51.626;7.516;2023-04-25T12:00:14;14.80;92.80
4530;DHT22;2277;51.626;7.516;2023-04-25T12:02:41;15.10;94.10
4530;DHT22;2277;51.626;7.516;2023-04-25T12:05:08;15.40;96.90
4530;DHT22;2277;51.626;7.516;2023-04-25T12:07:35;15.70;95.00
4530;DHT22;2277;51.626;7.516;2023-04-25T12:10:05;16.00;90.90
4530;DHT22;2277;51.626;7.516;2023-04-25T12:12:36;16.10;91.10
4530;DHT22;2277;51.626;7.516;2023-04-25T12:15:16;16.10;89.70
4530;DHT22;2277;51.626;7.516;2023-04-25T12:17:45;16.20;85.70
4530;DHT22;2277;51.626;7.516;2023-04-25T12:20:19;16.30;87.10
4530;DHT22;2277;51.626;7.516;2023-04-25T12:22:47;16.40;91.10
4530;DHT22;2277;51.626;7.516;2023-04-25T12:25:35;16.50;87.70
4530;DHT22;2277;51.626;7.516;2023-04-25T12:28:20;16.40;81.60
4530;DHT22;2277;51.626;7.516;2023-04-25T12:30:57;16.30;82.70
4530;DHT22;2277;51.626;7.516;2023-04-25T12:33:23;16.20;82.50
4530;DHT22;2277;51.626;7.516;2023-04-25T12:35:49;16.00;81.80
4530;DHT22;2277;51.626;7.516;2023-04-25T12:38:25;15.90;76.30
4530;DHT22;2277;51.626;7.516;2023-04-25T12:40:52;15.80;78.60
4530;DHT22;2277;51.626;7.516;2023-04-25T12:43:17;15.70;80.80
4530;DHT22;2277;51.626;7.516;2023-04-25T12:45:44;15.60;85.30
4530;DHT22;2277;51.626;7.516;2023-04-25T12:48:10;15.40;91.00
4530;DHT22;2277;51.626;7.516;2023-04-25T12:50:36;15.40;94.00
4530;DHT22;2277;51.626;7.516;2023-04-25T12:53:02;15.30;95.40
4530;DHT22;2277;51.626;7.516;2023-04-25T12:55:27;15.20;97.30
4530;DHT22;2277;51.626;7.516;2023-04-25T12:57:53;15.10;98.00
4530;DHT22;2277;51.626;7.516;2023-04-25T13:00:19;15.00;98.40
4530;DHT22;2277;51.626;7.516;2023-04-25T13:02:45;15.00;99.90
4530;DHT22;2277;51.626;7.516;2023-04-25T13:05:12;15.10;99.90
4530;DHT22;2277;51.626;7.516;2023-04-25T13:07:38;15.20;99.90
4530;DHT22;2277;51.626;7.516;2023-04-25T13:10:04;15.20;99.90
4530;DHT22;2277;51.626;7.516;2023-04-25T13:12:31;15.30;99.90
4530;DHT22;2277;51.626;7.516;2023-04-25T13:14:56;15.50;99.90
4530;DHT22;2277;51.626;7.516;2023-04-25T13:17:22;15.70;95.20
4530;DHT22;2277;51.626;7.516;2023-04-25T13:19:48;15.60;97.90
4530;DHT22;2277;51.626;7.516;2023-04-25T13:22:14;15.70;97.40
4530;DHT22;2277;51.626;7.516;2023-04-25T13:24:42;15.80;98.40
4530;DHT22;2277;51.626;7.516;2023-04-25T13:27:07;16.00;99.60
4530;DHT22;2277;51.626;7.516;2023-04-25T13:29:33;16.10;97.10
4530;DHT22;2277;51.626;7.516;2023-04-25T13:32:03;16.10;93.20
4530;DHT22;2277;51.626;7.516;2023-04-25T13:34:29;16.10;92.60
4530;DHT22;2277;51.626;7.516;2023-04-25T13:36:56;16.10;91.50
4530;DHT22;2277;51.626;7.516;2023-04-25T13:39:21;15.90;92.50
4530;DHT22;2277;51.626;7.516;2023-04-25T13:41:47;15.50;93.50
4530;DHT22;2277;51.626;7.516;2023-04-25T13:44:12;15.40;93.10
4530;DHT22;2277;51.626;7.516;2023-04-25T13:46:38;15.00;92.60
4530;DHT22;2277;51.626;7.516;2023-04-25T13:49:04;14.80;94.10
4530;DHT22;2277;51.626;7.516;2023-04-25T13:51:30;14.60;95.50
4530;DHT22;2277;51.626;7.516;2023-04-25T13:53:56;14.50;95.90
4530;DHT22;2277;51.626;7.516;2023-04-25T13:56:22;14.30;97.20
4530;DHT22;2277;51.626;7.516;2023-04-25T13:58:51;14.20;97.60
4530;DHT22;2277;51.626;7.516;2023-04-25T14:01:17;14.10;97.50
4530;DHT22;2277;51.626;7.516;2023-04-25T14:03:44;14.00;96.30
4530;DHT22;2277;51.626;7.516;2023-04-25T14:06:10;13.90;96.50
4530;DHT22;2277;51.626;7.516;2023-04-25T14:08:38;13.90;96.20
4530;DHT22;2277;51.626;7.516;2023-04-25T14:11:03;13.90;98.80
4530;DHT22;2277;51.626;7.516;2023-04-25T14:13:29;14.00;98.90
4530;DHT22;2277;51.626;7.516;2023-04-25T14:15:55;14.20;95.80
4530;DHT22;2277;51.626;7.516;2023-04-25T14:18:20;14.30;96.80
4530;DHT22;2277;51.626;7.516;2023-04-25T14:20:46;14.40;96.80
4530;DHT22;2277;51.626;7.516;2023-04-25T14:23:12;14.50;98.20
4530;DHT22;2277;51.626;7.516;2023-04-25T14:25:38;14.50;97.40
4530;DHT22;2277;51.626;7.516;2023-04-25T14:28:03;14.60;96.10
4530;DHT22;2277;51.626;7.516;2023-04-25T14:30:29;14.80;96.80
4530;DHT22;2277;51.626;7.516;2023-04-25T14:32:55;15.00;94.50
4530;DHT22;2277;51.626;7.516;2023-04-25T14:35:21;15.30;96.60
4530;DHT22;2277;51.626;7.516;2023-04-25T14:37:46;15.60;96.10
4530;DHT22;2277;51.626;7.516;2023-04-25T14:40:12;15.80;94.20
4530;DHT22;2277;51.626;7.516;2023-04-25T14:42:40;16.00;90.40
4530;DHT22;2277;51.626;7.516;2023-04-25T14:45:07;15.90;90.40
4530;DHT22;2277;51.626;7.516;2023-04-25T14:47:34;15.80;90.50
4530;DHT22;2277;51.626;7.516;2023-04-25T14:50:01;15.70;93.30
4530;DHT22;2277;51.626;7.516;2023-04-25T14:52:27;15.40;94.60
4530;DHT22;2277;51.626;7.516;2023-04-25T14:54:53;15.30;96.80
4530;DHT22;2277;51.626;7.516;2023-04-25T14:57:18;15.10;98.70
4530;DHT22;2277;51.626;7.516;2023-04-25T14:59:44;14.90;99.90
4530;DHT22;2277;51.626;7.516;2023-04-25T15:02:10;14.70;99.90
4530;DHT22;2277;51.626;7.516;2023-04-25T15:04:36;14.50;99.90
4530;DHT22;2277;51.626;7.516;2023-04-25T15:07:02;14.30;99.90
4530;DHT22;2277;51.626;7.516;2023-04-25T15:09:28;14.20;99.90
4530;DHT22;2277;51.626;7.516;2023-04-25T15:11:53;14.00;99.90
4530;DHT22;2277;51.626;7.516;2023-04-25T15:14:19;13.90;99.90
4530;DHT22;2277;51.626;7.516;2023-04-25T15:16:45;13.80;99.90
4530;DHT22;2277;51.626;7.516;2023-04-25T15:19:11;13.70;99.90
4530;DHT22;2277;51.626;7.516;2023-04-25T15:21:36;13.70;99.90
4530;DHT22;2277;51.626;7.516;2023-04-25T15:24:02;13.70;99.90
4530;DHT22;2277;51.626;7.516;2023-04-25T15:26:28;13.70;99.60
4530;DHT22;2277;51.626;7.516;2023-04-25T15:28:53;13.70;99.60
4530;DHT22;2277;51.626;7.516;2023-04-25T15:31:19;13.70;99.90
4530;DHT22;2277;51.626;7.516;2023-04-25T15:33:45;13.80;99.90
4530;DHT22;2277;51.626;7.516;2023-04-25T15:36:11;13.90;99.90
4530;DHT22;2277;51.626;7.516;2023-04-25T15:38:37;14.10;99.90
4530;DHT22;2277;51.626;7.516;2023-04-25T15:41:02;14.10;99.90
4530;DHT22;2277;51.626;7.516;2023-04-25T15:43:28;14.10;99.90
4530;DHT22;2277;51.626;7.516;2023-04-25T15:45:54;14.10;99.90
4530;DHT22;2277;51.626;7.516;2023-04-25T15:48:20;14.00;99.90
4530;DHT22;2277;51.626;7.516;2023-04-25T15:50:45;14.10;99.90
4530;DHT22;2277;51.626;7.516;2023-04-25T15:53:11;14.10;99.90
4530;DHT22;2277;51.626;7.516;2023-04-25T15:55:38;14.00;99.90
4530;DHT22;2277;51.626;7.516;2023-04-25T15:58:03;13.90;99.90
4530;DHT22;2277;51.626;7.516;2023-04-25T16:00:29;13.80;98.80
4530;DHT22;2277;51.626;7.516;2023-04-25T16:02:55;13.70;97.80
4530;DHT22;2277;51.626;7.516;2023-04-25T16:05:21;13.60;97.90
4530;DHT22;2277;51.626;7.516;2023-04-25T16:07:47;13.40;97.80
4530;DHT22;2277;51.626;7.516;2023-04-25T16:10:13;13.40;98.00